BENVENUTI AL 154° GRUPPO VIRTUALE
Saturday, 23 May 2020 02:21

OCU1

Written by
Rate this item
(0 votes)
Primo giorno di addestramento OCU su F-14B, Pilot per FRECCIA10 sul 101, Rio per il neo promosso FRECCIA14 sul 103.
Read 1552 times Last modified on Saturday, 23 May 2020 10:44

Media

https://drive.google.com/open?id=18k-JkhTbXZJyRrY_Q21iW8L0Q7MAZglF

Leave a comment

Make sure you enter all the required information, indicated by an asterisk (*). HTML code is not allowed.

METAR & TAF

[Source: ADDS]
METAR
LIPL 151055Z 22004KT 9999 FEW040 30/17 Q1007 RMK SCT SCT200 VIS MIN 9999 WIND THR31 22005KT WIND THR13 21004KT BLU =
LIPL 151100Z 1512/1521 27006KT 9999 SCT030 SCT060 PROB30 1516/1521 5000 TSRA FEW020CB SCT070
TAF
LIPL 150800Z 1509/1518 27004KT CAVOK PROB30 1515/1518 34010KT 8000 TSRA SCT020CB SCT070 =

Notice: Undefined index: sun in /web/htdocs/www.154gruppovirtuale.it/home/modules/mod_wx/tmpl/default.php on line 13

Official Tools

CombatFlite Logo  
 
   

Network

Simulation Platform